RYR1UL LIEE-LIRA
Flight info
| Callsign | RYR1UL |
|---|---|
| Flight time | 0h 48m |
| Altitude | 18000 |
| Route | CAR M126 LEDRO/N0427F340 DCT ALEDI DCT QUENN DCT ROXAN DCT ESINO |
| Aircraft | B738/M-SADFGIJ1LRWYZ/SB1 |
Departure
| Time | 2026-04-27 08:41 |
|---|---|
| Airport | Cagliari Elmas Airport (LIEE) |
Arrival
| Time | 2026-04-27 09:29 |
|---|---|
| Airport | Ciampino–G. B. Pastine International Airport (LIRA) |
| Time | Latitude | Longitude | Altitude | Speed | Heading |
|---|---|---|---|---|---|
| 2026-04-27 08:14 | 39.25250 | 9.05870 | 14 ft | 0 kts | 51° |
| 2026-04-27 08:32 | 39.25244 | 9.05861 | 42 ft | 3 kts | 51° |
| 2026-04-27 08:32 | 39.25232 | 9.05840 | 3 ft | 3 kts | 51° |
| 2026-04-27 08:33 | 39.25222 | 9.05822 | 16 ft | 3 kts | 81° |
| 2026-04-27 08:33 | 39.25224 | 9.05801 | 15 ft | 3 kts | 128° |
| 2026-04-27 08:33 | 39.25236 | 9.05784 | 16 ft | 2 kts | 138° |
| 2026-04-27 08:33 | 39.25247 | 9.05772 | 15 ft | 3 kts | 138° |
| 2026-04-27 08:34 | 39.25262 | 9.05755 | 14 ft | 3 kts | 138° |
| 2026-04-27 08:34 | 39.25274 | 9.05741 | 14 ft | 1 kts | 138° |
| 2026-04-27 08:34 | 39.25275 | 9.05740 | 14 ft | 1 kts | 138° |
| 2026-04-27 08:36 | 39.25271 | 9.05744 | 14 ft | 4 kts | 138° |
| 2026-04-27 08:36 | 39.25229 | 9.05792 | 16 ft | 12 kts | 138° |
| 2026-04-27 08:37 | 39.25163 | 9.05866 | 14 ft | 12 kts | 140° |
| 2026-04-27 08:37 | 39.25086 | 9.05967 | 14 ft | 19 kts | 130° |
| 2026-04-27 08:37 | 39.24999 | 9.06091 | 14 ft | 18 kts | 134° |
| 2026-04-27 08:37 | 39.24906 | 9.06200 | 14 ft | 18 kts | 142° |
| 2026-04-27 08:38 | 39.24805 | 9.06286 | 15 ft | 17 kts | 148° |
| 2026-04-27 08:38 | 39.24706 | 9.06366 | 14 ft | 16 kts | 148° |
| 2026-04-27 08:38 | 39.24611 | 9.06442 | 14 ft | 16 kts | 147° |
| 2026-04-27 08:38 | 39.24519 | 9.06517 | 14 ft | 15 kts | 148° |
| 2026-04-27 08:39 | 39.24428 | 9.06581 | 16 ft | 15 kts | 166° |
| 2026-04-27 08:39 | 39.24332 | 9.06562 | 16 ft | 14 kts | 197° |
| 2026-04-27 08:39 | 39.24250 | 9.06521 | 17 ft | 10 kts | 213° |
| 2026-04-27 08:39 | 39.24239 | 9.06479 | 16 ft | 3 kts | 313° |
| 2026-04-27 08:40 | 39.24247 | 9.06471 | 18 ft | 0 kts | 320° |
| 2026-04-27 08:40 | 39.24303 | 9.06408 | 15 ft | 37 kts | 319° |
| 2026-04-27 08:40 | 39.24669 | 9.05983 | 14 ft | 103 kts | 318° |
| 2026-04-27 08:40 | 39.25348 | 9.05205 | 18 ft | 155 kts | 319° |
| 2026-04-27 08:41 | 39.26179 | 9.04254 | 526 ft | 157 kts | 317° |
| 2026-04-27 08:41 | 39.27027 | 9.03327 | 1054 ft | 168 kts | 334° |
| 2026-04-27 08:41 | 39.28212 | 9.03193 | 1365 ft | 185 kts | 22° |
| 2026-04-27 08:41 | 39.29174 | 9.04353 | 1659 ft | 203 kts | 70° |
| 2026-04-27 08:42 | 39.29379 | 9.06174 | 2132 ft | 208 kts | 87° |
| 2026-04-27 08:42 | 39.29492 | 9.08060 | 2703 ft | 214 kts | 86° |
| 2026-04-27 08:42 | 39.29628 | 9.09978 | 3298 ft | 216 kts | 85° |
| 2026-04-27 08:42 | 39.29785 | 9.11922 | 3853 ft | 220 kts | 85° |
| 2026-04-27 08:43 | 39.29955 | 9.13885 | 4561 ft | 220 kts | 84° |
| 2026-04-27 08:43 | 39.30132 | 9.15861 | 5241 ft | 223 kts | 84° |
| 2026-04-27 08:43 | 39.30315 | 9.17876 | 5825 ft | 229 kts | 84° |
| 2026-04-27 08:43 | 39.30417 | 9.19936 | 6454 ft | 232 kts | 99° |
| 2026-04-27 08:44 | 39.29745 | 9.21863 | 6825 ft | 249 kts | 129° |
| 2026-04-27 08:44 | 39.28575 | 9.23647 | 7068 ft | 271 kts | 131° |
| 2026-04-27 08:44 | 39.27332 | 9.25544 | 7608 ft | 281 kts | 130° |
| 2026-04-27 08:44 | 39.26070 | 9.27496 | 8325 ft | 284 kts | 130° |
| 2026-04-27 08:45 | 39.24800 | 9.29474 | 9069 ft | 289 kts | 130° |
| 2026-04-27 08:45 | 39.23514 | 9.31479 | 9843 ft | 292 kts | 130° |
| 2026-04-27 08:45 | 39.22225 | 9.33488 | 10485 ft | 300 kts | 130° |
| 2026-04-27 08:45 | 39.20838 | 9.35649 | 10675 ft | 325 kts | 130° |
| 2026-04-27 08:46 | 39.19356 | 9.37958 | 11058 ft | 341 kts | 130° |
| 2026-04-27 08:46 | 39.17831 | 9.40334 | 11729 ft | 346 kts | 130° |
| 2026-04-27 08:46 | 39.16287 | 9.42736 | 12497 ft | 350 kts | 130° |
| 2026-04-27 08:46 | 39.14784 | 9.45220 | 13250 ft | 355 kts | 122° |
| 2026-04-27 08:47 | 39.13949 | 9.48223 | 13978 ft | 362 kts | 97° |
| 2026-04-27 08:47 | 39.14089 | 9.51453 | 14718 ft | 364 kts | 74° |
| 2026-04-27 08:47 | 39.15163 | 9.54389 | 15499 ft | 365 kts | 53° |
| 2026-04-27 08:47 | 39.16965 | 9.56675 | 16251 ft | 366 kts | 37° |
| 2026-04-27 08:48 | 39.19025 | 9.58662 | 16909 ft | 372 kts | 35° |
| 2026-04-27 08:48 | 39.21124 | 9.60614 | 17720 ft | 373 kts | 36° |
| 2026-04-27 08:48 | 39.23233 | 9.62595 | 18368 ft | 379 kts | 36° |
| 2026-04-27 08:48 | 39.25362 | 9.64638 | 19008 ft | 382 kts | 37° |
| 2026-04-27 08:49 | 39.27487 | 9.66701 | 19641 ft | 385 kts | 37° |
| 2026-04-27 08:49 | 39.29635 | 9.68794 | 20234 ft | 389 kts | 37° |
| 2026-04-27 08:49 | 39.31804 | 9.70902 | 20839 ft | 392 kts | 37° |
| 2026-04-27 08:49 | 39.34004 | 9.73038 | 21415 ft | 396 kts | 37° |
| 2026-04-27 08:50 | 39.36212 | 9.75183 | 22036 ft | 399 kts | 37° |
| 2026-04-27 08:50 | 39.38443 | 9.77352 | 22572 ft | 403 kts | 37° |
| 2026-04-27 08:50 | 39.40690 | 9.79539 | 23229 ft | 404 kts | 37° |
| 2026-04-27 08:50 | 39.42938 | 9.81729 | 23862 ft | 406 kts | 37° |
| 2026-04-27 08:51 | 39.45198 | 9.83933 | 24277 ft | 410 kts | 37° |
| 2026-04-27 08:51 | 39.47491 | 9.86171 | 24689 ft | 415 kts | 37° |
| 2026-04-27 08:51 | 39.49800 | 9.88427 | 25174 ft | 417 kts | 37° |
| 2026-04-27 08:51 | 39.52120 | 9.90695 | 25649 ft | 419 kts | 37° |
| 2026-04-27 08:52 | 39.54454 | 9.92981 | 26100 ft | 422 kts | 37° |
| 2026-04-27 08:52 | 39.56807 | 9.95285 | 26504 ft | 426 kts | 37° |
| 2026-04-27 08:52 | 39.59180 | 9.97611 | 26921 ft | 429 kts | 37° |
| 2026-04-27 08:52 | 39.61562 | 9.99948 | 27356 ft | 431 kts | 37° |
| 2026-04-27 08:53 | 39.63960 | 10.02300 | 27800 ft | 433 kts | 36° |
| 2026-04-27 08:53 | 39.66372 | 10.04669 | 28198 ft | 436 kts | 36° |
| 2026-04-27 08:53 | 39.68801 | 10.07055 | 28578 ft | 439 kts | 36° |
| 2026-04-27 08:53 | 39.71246 | 10.09461 | 28969 ft | 442 kts | 36° |
| 2026-04-27 08:54 | 39.73664 | 10.11842 | 29472 ft | 442 kts | 36° |
| 2026-04-27 08:54 | 39.76105 | 10.14249 | 30071 ft | 439 kts | 36° |
| 2026-04-27 08:54 | 39.78532 | 10.16644 | 30581 ft | 437 kts | 36° |
| 2026-04-27 08:54 | 39.80952 | 10.19034 | 31018 ft | 436 kts | 37° |
| 2026-04-27 08:55 | 39.83357 | 10.21412 | 31517 ft | 434 kts | 37° |
| 2026-04-27 08:55 | 39.85750 | 10.23780 | 32041 ft | 431 kts | 37° |
| 2026-04-27 08:55 | 39.88131 | 10.26137 | 32476 ft | 430 kts | 37° |
| 2026-04-27 08:55 | 39.90515 | 10.28500 | 32861 ft | 430 kts | 37° |
| 2026-04-27 08:56 | 39.92893 | 10.30860 | 33270 ft | 429 kts | 37° |
| 2026-04-27 08:56 | 39.95263 | 10.33213 | 33716 ft | 427 kts | 37° |
| 2026-04-27 08:56 | 39.97623 | 10.35559 | 34139 ft | 426 kts | 37° |
| 2026-04-27 08:56 | 39.99996 | 10.37919 | 34169 ft | 432 kts | 37° |
| 2026-04-27 08:57 | 40.07161 | 10.45060 | 34173 ft | 427 kts | 37° |
| 2026-04-27 08:58 | 40.11865 | 10.49760 | 34192 ft | 426 kts | 37° |
| 2026-04-27 08:58 | 40.16590 | 10.54486 | 34190 ft | 428 kts | 37° |
| 2026-04-27 08:59 | 40.21266 | 10.59165 | 33933 ft | 417 kts | 37° |
| 2026-04-27 08:59 | 40.23545 | 10.61446 | 33687 ft | 409 kts | 37° |
| 2026-04-27 08:59 | 40.25795 | 10.63700 | 33324 ft | 405 kts | 37° |
| 2026-04-27 08:59 | 40.28021 | 10.65932 | 32962 ft | 402 kts | 37° |
| 2026-04-27 09:00 | 40.30230 | 10.68150 | 32595 ft | 399 kts | 37° |
| 2026-04-27 09:00 | 40.32422 | 10.70352 | 32242 ft | 396 kts | 37° |
| 2026-04-27 09:00 | 40.34568 | 10.72509 | 31897 ft | 393 kts | 37° |
| 2026-04-27 09:00 | 40.36724 | 10.74679 | 31551 ft | 390 kts | 37° |
| 2026-04-27 09:01 | 40.38871 | 10.76842 | 31215 ft | 387 kts | 37° |
| 2026-04-27 09:01 | 40.41000 | 10.78989 | 30868 ft | 385 kts | 37° |
| 2026-04-27 09:01 | 40.43117 | 10.81125 | 30533 ft | 383 kts | 37° |
| 2026-04-27 09:01 | 40.45218 | 10.83246 | 30189 ft | 380 kts | 37° |
| 2026-04-27 09:02 | 40.47313 | 10.85363 | 29797 ft | 378 kts | 37° |
| 2026-04-27 09:02 | 40.49384 | 10.87457 | 29448 ft | 374 kts | 37° |
| 2026-04-27 09:02 | 40.51433 | 10.89533 | 29078 ft | 371 kts | 37° |
| 2026-04-27 09:02 | 40.53467 | 10.91593 | 28737 ft | 367 kts | 37° |
| 2026-04-27 09:03 | 40.55482 | 10.93636 | 28389 ft | 364 kts | 37° |
| 2026-04-27 09:03 | 40.57478 | 10.95661 | 28040 ft | 361 kts | 37° |
| 2026-04-27 09:03 | 40.59460 | 10.97674 | 27692 ft | 359 kts | 37° |
| 2026-04-27 09:03 | 40.61427 | 10.99673 | 27355 ft | 356 kts | 37° |
| 2026-04-27 09:04 | 40.63382 | 11.01661 | 27012 ft | 354 kts | 37° |
| 2026-04-27 09:04 | 40.65325 | 11.03638 | 26683 ft | 352 kts | 37° |
| 2026-04-27 09:04 | 40.67255 | 11.05604 | 26334 ft | 350 kts | 37° |
| 2026-04-27 09:04 | 40.69174 | 11.07560 | 26022 ft | 348 kts | 37° |
| 2026-04-27 09:05 | 40.71082 | 11.09506 | 25693 ft | 346 kts | 37° |
| 2026-04-27 09:05 | 40.72975 | 11.11440 | 25368 ft | 344 kts | 37° |
| 2026-04-27 09:05 | 40.74864 | 11.13370 | 25043 ft | 343 kts | 37° |
| 2026-04-27 09:05 | 40.76749 | 11.15297 | 24718 ft | 341 kts | 37° |
| 2026-04-27 09:06 | 40.78622 | 11.17213 | 24394 ft | 340 kts | 37° |
| 2026-04-27 09:06 | 40.80489 | 11.19124 | 24075 ft | 339 kts | 37° |
| 2026-04-27 09:06 | 40.82350 | 11.21030 | 23748 ft | 338 kts | 37° |
| 2026-04-27 09:06 | 40.84205 | 11.22934 | 23373 ft | 337 kts | 37° |
| 2026-04-27 09:07 | 40.86048 | 11.24833 | 23047 ft | 335 kts | 37° |
| 2026-04-27 09:07 | 40.87263 | 11.26086 | 22818 ft | 333 kts | 37° |
| 2026-04-27 09:07 | 40.89085 | 11.27967 | 22490 ft | 331 kts | 37° |
| 2026-04-27 09:07 | 40.90890 | 11.29833 | 22162 ft | 329 kts | 37° |
| 2026-04-27 09:08 | 40.92693 | 11.31696 | 21860 ft | 327 kts | 37° |
| 2026-04-27 09:08 | 40.95061 | 11.34146 | 21442 ft | 325 kts | 37° |
| 2026-04-27 09:08 | 40.96258 | 11.35386 | 21231 ft | 323 kts | 37° |
| 2026-04-27 09:08 | 40.98025 | 11.37216 | 20921 ft | 322 kts | 37° |
| 2026-04-27 09:09 | 40.99782 | 11.39037 | 20616 ft | 320 kts | 37° |
| 2026-04-27 09:09 | 41.01532 | 11.40852 | 20300 ft | 319 kts | 37° |
| 2026-04-27 09:09 | 41.03274 | 11.42661 | 19997 ft | 318 kts | 37° |
| 2026-04-27 09:09 | 41.05010 | 11.44464 | 19688 ft | 317 kts | 37° |
| 2026-04-27 09:10 | 41.06740 | 11.46262 | 19382 ft | 316 kts | 37° |
| 2026-04-27 09:10 | 41.08465 | 11.48056 | 19077 ft | 315 kts | 37° |
| 2026-04-27 09:10 | 41.10186 | 11.49847 | 18773 ft | 314 kts | 37° |
| 2026-04-27 09:10 | 41.11902 | 11.51634 | 18463 ft | 313 kts | 37° |
| 2026-04-27 09:11 | 41.13592 | 11.53395 | 18117 ft | 313 kts | 37° |
| 2026-04-27 09:11 | 41.15299 | 11.55176 | 17790 ft | 311 kts | 37° |
| 2026-04-27 09:11 | 41.16997 | 11.56949 | 17467 ft | 310 kts | 37° |
| 2026-04-27 09:11 | 41.18687 | 11.58714 | 17166 ft | 308 kts | 37° |
| 2026-04-27 09:12 | 41.20368 | 11.60471 | 16867 ft | 307 kts | 37° |
| 2026-04-27 09:12 | 41.22041 | 11.62221 | 16558 ft | 305 kts | 37° |
| 2026-04-27 09:12 | 41.23705 | 11.63963 | 16266 ft | 304 kts | 37° |
| 2026-04-27 09:12 | 41.25367 | 11.65702 | 15865 ft | 306 kts | 37° |
| 2026-04-27 09:13 | 41.27045 | 11.67461 | 15518 ft | 306 kts | 37° |
| 2026-04-27 09:13 | 41.28718 | 11.69215 | 15208 ft | 306 kts | 37° |
| 2026-04-27 09:13 | 41.30383 | 11.70963 | 14899 ft | 305 kts | 37° |
| 2026-04-27 09:13 | 41.32047 | 11.72710 | 14596 ft | 304 kts | 37° |
| 2026-04-27 09:14 | 41.33705 | 11.74452 | 14307 ft | 303 kts | 37° |
| 2026-04-27 09:14 | 41.35358 | 11.76190 | 14000 ft | 302 kts | 37° |
| 2026-04-27 09:14 | 41.37004 | 11.77921 | 13658 ft | 301 kts | 37° |
| 2026-04-27 09:14 | 41.38639 | 11.79651 | 13346 ft | 300 kts | 39° |
| 2026-04-27 09:15 | 41.40205 | 11.81476 | 13027 ft | 298 kts | 41° |
| 2026-04-27 09:15 | 41.41721 | 11.83345 | 12721 ft | 296 kts | 42° |
| 2026-04-27 09:15 | 41.43222 | 11.85216 | 12422 ft | 295 kts | 42° |
| 2026-04-27 09:15 | 41.44714 | 11.87077 | 12124 ft | 293 kts | 42° |
| 2026-04-27 09:16 | 41.46200 | 11.88927 | 11831 ft | 291 kts | 42° |
| 2026-04-27 09:16 | 41.47680 | 11.90764 | 11535 ft | 290 kts | 42° |
| 2026-04-27 09:16 | 41.49156 | 11.92593 | 11243 ft | 289 kts | 42° |
| 2026-04-27 09:16 | 41.50624 | 11.94410 | 10937 ft | 287 kts | 43° |
| 2026-04-27 09:17 | 41.52083 | 11.96217 | 10655 ft | 286 kts | 43° |
| 2026-04-27 09:17 | 41.53541 | 11.98021 | 10378 ft | 285 kts | 43° |
| 2026-04-27 09:17 | 41.54993 | 11.99817 | 10140 ft | 282 kts | 43° |
| 2026-04-27 09:17 | 41.56393 | 12.01551 | 9988 ft | 276 kts | 43° |
| 2026-04-27 09:18 | 41.57799 | 12.03292 | 9682 ft | 275 kts | 43° |
| 2026-04-27 09:18 | 41.59197 | 12.05025 | 9414 ft | 273 kts | 43° |
| 2026-04-27 09:18 | 41.60582 | 12.06743 | 9150 ft | 271 kts | 43° |
| 2026-04-27 09:18 | 41.61958 | 12.08449 | 8891 ft | 270 kts | 43° |
| 2026-04-27 09:19 | 41.63329 | 12.10152 | 8631 ft | 268 kts | 43° |
| 2026-04-27 09:19 | 41.64691 | 12.11843 | 8375 ft | 267 kts | 43° |
| 2026-04-27 09:19 | 41.66047 | 12.13528 | 8118 ft | 265 kts | 43° |
| 2026-04-27 09:19 | 41.67396 | 12.15206 | 7860 ft | 264 kts | 43° |
| 2026-04-27 09:20 | 41.68739 | 12.16877 | 7603 ft | 263 kts | 43° |
| 2026-04-27 09:20 | 41.70078 | 12.18544 | 7349 ft | 262 kts | 43° |
| 2026-04-27 09:20 | 41.71411 | 12.20205 | 7025 ft | 261 kts | 43° |
| 2026-04-27 09:20 | 41.72739 | 12.21860 | 6755 ft | 261 kts | 44° |
| 2026-04-27 09:21 | 41.74061 | 12.23509 | 6484 ft | 260 kts | 43° |
| 2026-04-27 09:21 | 41.75382 | 12.25159 | 6219 ft | 260 kts | 43° |
| 2026-04-27 09:21 | 41.76703 | 12.26807 | 6036 ft | 257 kts | 43° |
| 2026-04-27 09:21 | 41.77987 | 12.28410 | 5996 ft | 247 kts | 43° |
| 2026-04-27 09:22 | 41.79227 | 12.29960 | 5986 ft | 243 kts | 43° |
| 2026-04-27 09:22 | 41.80455 | 12.31497 | 5866 ft | 240 kts | 44° |
| 2026-04-27 09:22 | 41.81677 | 12.33027 | 5597 ft | 241 kts | 44° |
| 2026-04-27 09:22 | 41.82899 | 12.34558 | 5363 ft | 240 kts | 43° |
| 2026-04-27 09:23 | 41.84118 | 12.36085 | 5135 ft | 239 kts | 43° |
| 2026-04-27 09:23 | 41.85315 | 12.37586 | 5060 ft | 230 kts | 43° |
| 2026-04-27 09:23 | 41.86466 | 12.39029 | 4839 ft | 225 kts | 43° |
| 2026-04-27 09:23 | 41.87609 | 12.40465 | 4482 ft | 225 kts | 43° |
| 2026-04-27 09:24 | 41.88719 | 12.41859 | 4378 ft | 212 kts | 43° |
| 2026-04-27 09:24 | 41.89766 | 12.43173 | 4256 ft | 203 kts | 43° |
| 2026-04-27 09:24 | 41.90791 | 12.44461 | 4005 ft | 200 kts | 43° |
| 2026-04-27 09:24 | 41.91789 | 12.45716 | 3878 ft | 193 kts | 43° |
| 2026-04-27 09:25 | 41.92761 | 12.46938 | 3655 ft | 190 kts | 42° |
| 2026-04-27 09:25 | 41.93635 | 12.48256 | 3341 ft | 191 kts | 65° |
| 2026-04-27 09:25 | 41.93671 | 12.49973 | 3095 ft | 184 kts | 116° |
| 2026-04-27 09:25 | 41.92770 | 12.51054 | 2946 ft | 181 kts | 162° |
| 2026-04-27 09:26 | 41.91558 | 12.51605 | 2705 ft | 186 kts | 159° |
| 2026-04-27 09:26 | 41.90378 | 12.52278 | 2446 ft | 184 kts | 155° |
| 2026-04-27 09:26 | 41.89246 | 12.53036 | 2221 ft | 180 kts | 153° |
| 2026-04-27 09:26 | 41.88135 | 12.53806 | 1982 ft | 179 kts | 153° |
| 2026-04-27 09:27 | 41.87038 | 12.54566 | 1734 ft | 177 kts | 153° |
| 2026-04-27 09:27 | 41.85949 | 12.55320 | 1492 ft | 173 kts | 154° |
| 2026-04-27 09:27 | 41.84907 | 12.56041 | 1292 ft | 164 kts | 154° |
| 2026-04-27 09:27 | 41.83946 | 12.56705 | 1086 ft | 149 kts | 154° |
| 2026-04-27 09:28 | 41.83039 | 12.57334 | 891 ft | 145 kts | 154° |
| 2026-04-27 09:28 | 41.82141 | 12.57957 | 729 ft | 147 kts | 153° |
| 2026-04-27 09:28 | 41.81236 | 12.58589 | 541 ft | 148 kts | 153° |
| 2026-04-27 09:28 | 41.80327 | 12.59212 | 409 ft | 139 kts | 152° |
| 2026-04-27 09:29 | 41.79663 | 12.59671 | 411 ft | 75 kts | 153° |
| 2026-04-27 09:29 | 41.79283 | 12.59934 | 411 ft | 38 kts | 152° |
| 2026-04-27 09:29 | 41.79110 | 12.60054 | 412 ft | 18 kts | 155° |
| 2026-04-27 09:29 | 41.79033 | 12.59980 | 408 ft | 18 kts | 246° |
| 2026-04-27 09:30 | 41.79098 | 12.59860 | 406 ft | 18 kts | 333° |
| 2026-04-27 09:30 | 41.79208 | 12.59783 | 406 ft | 17 kts | 333° |
| 2026-04-27 09:30 | 41.79314 | 12.59710 | 406 ft | 17 kts | 333° |
| 2026-04-27 09:30 | 41.79417 | 12.59639 | 404 ft | 17 kts | 333° |
| 2026-04-27 09:31 | 41.79538 | 12.59555 | 405 ft | 22 kts | 333° |
| 2026-04-27 09:31 | 41.79688 | 12.59454 | 406 ft | 25 kts | 333° |
| 2026-04-27 09:31 | 41.79836 | 12.59351 | 406 ft | 23 kts | 333° |
| 2026-04-27 09:31 | 41.79976 | 12.59253 | 406 ft | 22 kts | 333° |
| 2026-04-27 09:32 | 41.80113 | 12.59159 | 406 ft | 21 kts | 333° |
| 2026-04-27 09:32 | 41.80161 | 12.59047 | 405 ft | 10 kts | 240° |
| 2026-04-27 09:32 | 41.80136 | 12.59004 | 405 ft | 0 kts | 232° |
| 2026-04-27 09:32 | 41.79451 | 12.59615 | 406 ft | 17 kts | 332° |
| 2026-04-27 09:33 | 41.84114 | 12.56590 | 1119 ft | 150 kts | 154° |
| 2026-04-27 09:33 | 41.84377 | 12.56408 | 1188 ft | 155 kts | 154° |
| 2026-04-27 09:33 | 41.83454 | 12.57046 | 962 ft | 146 kts | 154° |
| 2026-04-27 09:33 | 41.82555 | 12.57666 | 813 ft | 145 kts | 154° |
| 2026-04-27 09:34 | 41.81660 | 12.58292 | 628 ft | 148 kts | 153° |
| 2026-04-27 09:34 | 41.81763 | 12.58220 | 649 ft | 147 kts | 153° |
| 2026-04-27 09:34 | 41.80853 | 12.58854 | 464 ft | 147 kts | 154° |
| 2026-04-27 09:34 | 41.80004 | 12.59435 | 416 ft | 112 kts | 153° |
| 2026-04-27 09:35 | 41.79489 | 12.59791 | 411 ft | 67 kts | 153° |
| 2026-04-27 09:35 | 41.81997 | 12.58057 | 692 ft | 147 kts | 153° |
| 2026-04-27 09:35 | 41.81086 | 12.58694 | 513 ft | 148 kts | 153° |
| 2026-04-27 09:35 | 41.80195 | 12.59304 | 408 ft | 129 kts | 153° |
| 2026-04-27 09:36 | 41.79595 | 12.59717 | 406 ft | 66 kts | 153° |
| 2026-04-27 09:36 | 41.79250 | 12.59957 | 411 ft | 31 kts | 152° |
| 2026-04-27 09:36 | 41.79093 | 12.60061 | 413 ft | 15 kts | 170° |
| 2026-04-27 09:36 | 41.79028 | 12.59954 | 407 ft | 18 kts | 264° |
| 2026-04-27 09:37 | 41.80838 | 12.58864 | 462 ft | 147 kts | 154° |
| 2026-04-27 09:37 | 41.80208 | 12.59295 | 415 ft | 126 kts | 153° |
| 2026-04-27 09:37 | 41.80418 | 12.59150 | 414 ft | 142 kts | 153° |
| 2026-04-27 09:37 | 41.80136 | 12.59004 | 405 ft | 0 kts | 232° |
| 2026-04-27 09:39 | 41.80129 | 12.58992 | 405 ft | 5 kts | 232° |
| 2026-04-27 09:39 | 41.80118 | 12.58979 | 403 ft | 0 kts | 220° |
| 2026-04-27 09:40 | 41.80117 | 12.58978 | 403 ft | 0 kts | 220° |
| 2026-04-27 09:40 | 41.80117 | 12.58977 | 403 ft | 0 kts | 220° |
| 2026-04-27 09:40 | 41.80114 | 12.58974 | 402 ft | 2 kts | 219° |
| 2026-04-27 09:41 | 41.80093 | 12.58976 | 405 ft | 4 kts | 148° |
| 2026-04-27 09:41 | 41.80076 | 12.59007 | 405 ft | 4 kts | 124° |
| 2026-04-27 09:41 | 41.80069 | 12.59021 | 405 ft | 1 kts | 123° |
| 2026-04-27 09:41 | 41.80068 | 12.59023 | 405 ft | 0 kts | 123° |